Time;durP1;ratioP1;P1;durP2;ratioP2;P2;SDS_P1;SDS_P2;PMS_P1;PMS_P2;Temp;Humidity;BMP_temperature;BMP_pressure;BME280_temperature;BME280_humidity;BME280_pressure;Samples;Min_cycle;Max_cycle;Signal;HPM_P1;HPM_P2
2023/06/07 00:00:49;;;;;;;;;18.25;15.00;;;;;21.81;52.15;101290.22;5016175;28;45303;-45
2023/06/07 00:03:15;;;;;;;;;16.00;11.00;;;;;21.82;52.29;101297.31;5015736;28;46963;-46
2023/06/07 00:05:40;;;;;;;;;16.00;12.50;;;;;21.79;52.42;101305.88;5015900;28;45255;-47
2023/06/07 00:08:07;;;;;;;;;13.00;13.00;;;;;21.77;52.37;101298.97;5015952;28;45301;-47
2023/06/07 00:10:33;;;;;;;;;11.00;11.00;;;;;21.76;52.76;101298.16;5015846;28;45429;-46
2023/06/07 00:12:59;;;;;;;;;15.75;12.75;;;;;21.73;52.39;101292.31;5015397;28;46296;-46
2023/06/07 00:15:24;;;;;;;;;13.75;12.00;;;;;21.75;52.65;101309.19;5015572;28;45369;-50
2023/06/07 00:17:50;;;;;;;;;14.50;14.50;;;;;21.71;52.49;101302.53;5015541;28;45916;-48
2023/06/07 00:20:15;;;;;;;;;17.50;13.75;;;;;21.62;52.93;101294.59;5016015;28;45478;-46
2023/06/07 00:22:41;;;;;;;;;18.00;15.00;;;;;21.65;52.92;101299.59;5015161;28;46810;-44
2023/06/07 00:25:07;;;;;;;;;16.50;13.50;;;;;21.62;53.13;101302.72;5015554;28;45324;-46
2023/06/07 00:27:32;;;;;;;;;17.25;13.00;;;;;21.58;52.84;101298.75;5015337;28;45440;-50
2023/06/07 00:29:58;;;;;;;;;16.00;12.00;;;;;21.55;52.90;101299.16;5015193;28;45417;-47
2023/06/07 00:32:23;;;;;;;;;15.00;13.00;;;;;21.53;52.97;101303.97;5015066;28;53035;-50
2023/06/07 00:34:49;;;;;;;;;14.75;13.00;;;;;21.49;53.29;101308.13;5015025;28;45340;-48
2023/06/07 00:37:14;;;;;;;;;15.75;13.75;;;;;21.42;52.97;101297.25;5015559;28;45374;-50
2023/06/07 00:39:40;;;;;;;;;13.25;13.00;;;;;21.40;52.98;101299.31;5017877;28;45385;-46
2023/06/07 00:42:06;;;;;;;;;18.00;16.00;;;;;21.35;52.87;101293.69;5018575;28;47049;-46
2023/06/07 00:44:32;;;;;;;;;18.25;13.00;;;;;21.30;52.70;101293.44;5018669;28;45360;-47
2023/06/07 00:46:57;;;;;;;;;16.00;14.25;;;;;21.26;53.26;101296.78;5018834;28;45267;-47
2023/06/07 00:49:23;;;;;;;;;17.75;12.25;;;;;21.19;53.56;101302.16;5018838;28;45427;-46
2023/06/07 00:51:49;;;;;;;;;17.50;15.00;;;;;21.02;52.15;101271.09;5018534;28;45853;-49
2023/06/07 00:54:17;;;;;;;;;16.75;14.50;;;;;21.10;53.08;101303.38;5018835;28;45358;-49
2023/06/07 00:56:50;;;;;;;;;15.25;13.00;;;;;21.02;53.21;101290.84;5018703;28;45440;-48
2023/06/07 00:59:19;;;;;;;;;16.75;14.75;;;;;20.99;53.60;101293.97;5018763;28;45426;-47
2023/06/07 01:01:51;;;;;;;;;16.50;12.25;;;;;20.88;53.73;101289.13;5018454;28;46752;-49
2023/06/07 01:04:19;;;;;;;;;17.50;14.25;;;;;20.89;53.80;101293.50;5018265;28;45779;-49
2023/06/07 01:06:44;;;;;;;;;15.00;12.00;;;;;20.86;53.88;101297.47;5018862;28;45856;-44
2023/06/07 01:09:13;;;;;;;;;15.50;13.00;;;;;20.84;53.66;101290.56;5018383;28;45425;-46
2023/06/07 01:11:42;;;;;;;;;19.50;16.50;;;;;20.80;53.99;101297.41;5018034;28;47026;-48
2023/06/07 01:14:10;;;;;;;;;22.75;13.50;;;;;20.75;53.38;101279.09;5018427;28;45469;-46
2023/06/07 01:16:35;;;;;;;;;19.25;17.00;;;;;20.75;54.07;101286.38;5018470;28;45333;-46
2023/06/07 01:19:04;;;;;;;;;17.75;15.75;;;;;20.70;54.11;101291.56;5018626;28;45405;-46
2023/06/07 01:21:32;;;;;;;;;15.50;14.00;;;;;20.64;53.95;101280.47;5018088;28;46199;-46
2023/06/07 01:23:59;;;;;;;;;15.75;14.00;;;;;20.62;53.67;101293.38;5017250;28;45370;-46
2023/06/07 01:26:27;;;;;;;;;16.75;12.00;;;;;20.58;53.80;101281.28;5018505;28;45487;-48
2023/06/07 01:28:53;;;;;;;;;11.75;11.75;;;;;20.43;53.49;101267.03;5018306;28;45279;-49
2023/06/07 01:31:22;;;;;;;;;20.25;17.00;;;;;20.51;53.91;101291.22;5017856;28;45721;-46
2023/06/07 01:33:49;;;;;;;;;21.50;15.50;;;;;20.46;54.50;101285.56;5018511;28;45443;-45
2023/06/07 01:36:15;;;;;;;;;19.00;14.67;;;;;20.37;54.44;101274.06;5018476;28;45226;-47
2023/06/07 01:38:43;;;;;;;;;18.00;13.50;;;;;20.39;54.39;101280.13;5018582;28;45417;-46
2023/06/07 01:41:09;;;;;;;;;19.00;16.25;;;;;20.19;54.65;101250.25;5018086;28;46178;-47
2023/06/07 01:43:36;;;;;;;;;21.00;17.50;;;;;20.34;54.55;101284.44;5018030;28;45342;-44
2023/06/07 01:46:03;;;;;;;;;18.25;14.50;;;;;20.28;54.42;101277.13;5017952;28;45542;-45
2023/06/07 01:48:29;;;;;;;;;20.33;15.33;;;;;20.23;53.84;101279.59;5018393;28;45495;-45
2023/06/07 01:50:54;;;;;;;;;22.50;17.25;;;;;20.17;54.41;101279.31;5016529;28;45950;-48
2023/06/07 01:53:20;;;;;;;;;22.00;16.75;;;;;20.16;55.17;101276.84;5017514;28;45307;-48
2023/06/07 01:55:55;;;;;;;;;20.00;16.00;;;;;20.10;54.81;101278.47;5017648;28;45355;-48
2023/06/07 01:58:40;;;;;;;;;19.33;17.00;;;;;20.03;54.86;101268.63;5017807;28;45403;-47
2023/06/07 02:01:19;;;;;;;;;16.00;15.75;;;;;20.02;54.90;101281.31;5017254;28;46944;-48
2023/06/07 02:03:49;;;;;;;;;20.00;15.00;;;;;19.99;55.15;101270.06;4999405;28;45407;-45
2023/06/07 02:06:20;;;;;;;;;20.33;17.33;;;;;19.94;54.77;101268.78;5017490;28;45350;-45
2023/06/07 02:08:50;;;;;;;;;18.33;17.67;;;;;19.91;55.26;101268.31;5017397;28;45497;-48
2023/06/07 02:11:17;;;;;;;;;19.00;16.00;;;;;19.87;55.27;101261.66;5017195;28;47163;-48
2023/06/07 02:13:43;;;;;;;;;22.67;15.00;;;;;19.80;55.29;101253.47;4999582;28;45332;-45
2023/06/07 02:16:10;;;;;;;;;22.00;17.33;;;;;19.81;55.46;101268.69;5017309;28;45383;-48
2023/06/07 02:18:43;;;;;;;;;17.00;15.00;;;;;19.77;54.81;101258.47;5017420;28;45420;-46
2023/06/07 02:21:10;;;;;;;;;23.00;17.33;;;;;19.74;55.58;101261.53;5017129;28;46303;-49
2023/06/07 02:23:35;;;;;;;;;21.67;17.33;;;;;19.68;55.78;101263.16;5017348;28;45177;-46
2023/06/07 02:26:02;;;;;;;;;19.00;16.33;;;;;19.64;55.59;101262.72;5017281;28;45537;-46
2023/06/07 02:28:27;;;;;;;;;20.67;18.67;;;;;19.63;55.90;101261.00;5017249;28;45366;-46
2023/06/07 02:30:55;;;;;;;;;20.33;18.00;;;;;19.58;55.54;101260.72;5016652;28;45917;-44
2023/06/07 02:33:21;;;;;;;;;21.33;18.00;;;;;19.54;56.00;101261.31;5016832;28;45458;-46
2023/06/07 02:35:47;;;;;;;;;20.33;16.67;;;;;19.50;56.10;101241.16;5016929;28;45870;-45
2023/06/07 02:38:13;;;;;;;;;21.67;18.00;;;;;19.50;56.28;101255.47;5017324;28;45429;-46
2023/06/07 02:40:38;;;;;;;;;18.00;15.00;;;;;19.49;56.40;101253.81;5016841;28;46210;-49
2023/06/07 02:43:03;;;;;;;;;25.33;19.00;;;;;19.46;56.06;101259.56;5016871;28;45328;-47
2023/06/07 02:45:29;;;;;;;;;20.33;16.33;;;;;19.45;55.53;101263.31;5016772;28;45365;-45
2023/06/07 02:47:54;;;;;;;;;23.00;17.33;;;;;19.39;56.46;101256.81;5017005;28;45308;-48
2023/06/07 02:50:21;;;;;;;;;18.33;15.33;;;;;19.35;56.28;101252.00;5016602;28;46159;-48
2023/06/07 02:52:47;;;;;;;;;18.67;16.33;;;;;19.30;56.62;101246.34;5016621;28;45441;-47
2023/06/07 02:55:13;;;;;;;;;23.67;18.67;;;;;19.33;56.64;101254.06;5016987;28;45408;-48
2023/06/07 02:57:38;;;;;;;;;17.67;15.00;;;;;19.30;56.72;101255.28;5017168;28;45271;-45
2023/06/07 03:00:08;;;;;;;;;20.67;16.67;;;;;19.27;56.58;101262.91;5016600;28;47126;-46
2023/06/07 03:02:34;;;;;;;;;26.33;19.33;;;;;19.23;56.27;101261.63;5015687;28;45627;-47
2023/06/07 03:05:00;;;;;;;;;23.00;20.33;;;;;19.20;56.72;101266.38;5016825;28;45282;-47
2023/06/07 03:07:25;;;;;;;;;16.00;15.00;;;;;19.17;56.79;101255.97;5016877;28;45279;-47
2023/06/07 03:09:51;;;;;;;;;23.33;19.33;;;;;19.17;56.77;101271.31;5016575;28;46040;-45
2023/06/07 03:12:17;;;;;;;;;22.00;17.67;;;;;19.05;56.85;101240.50;5016540;28;45425;-49
2023/06/07 03:14:42;;;;;;;;;20.33;17.00;;;;;19.12;56.88;101255.69;5016501;28;45473;-49
2023/06/07 03:17:08;;;;;;;;;24.00;19.00;;;;;19.10;56.99;101257.75;5016592;28;45381;-49
2023/06/07 03:19:34;;;;;;;;;25.67;18.00;;;;;19.01;57.11;101242.72;5016249;28;45695;-47
2023/06/07 03:22:00;;;;;;;;;30.00;23.00;;;;;19.06;56.93;101263.72;5016280;28;45370;-48
2023/06/07 03:24:28;;;;;;;;;21.00;19.00;;;;;19.03;57.03;101256.84;5016394;28;45330;-48
2023/06/07 03:26:53;;;;;;;;;18.33;17.67;;;;;19.00;57.15;101249.13;5016261;28;45384;-47
2023/06/07 03:29:19;;;;;;;;;21.33;18.67;;;;;18.86;57.04;101240.03;5015777;28;45600;-48
2023/06/07 03:31:44;;;;;;;;;24.33;20.33;;;;;18.82;57.02;101236.06;5016058;28;45313;-48
2023/06/07 03:34:10;;;;;;;;;24.67;19.00;;;;;18.89;57.45;101242.38;5016320;28;45698;-45
2023/06/07 03:36:35;;;;;;;;;23.00;16.67;;;;;18.84;57.23;101241.28;5016392;28;45378;-46
2023/06/07 03:39:01;;;;;;;;;20.67;18.67;;;;;18.87;57.40;101246.28;5016076;28;47070;-46
2023/06/07 03:41:27;;;;;;;;;21.00;19.67;;;;;18.85;57.52;101248.34;5016051;28;45410;-48
2023/06/07 03:43:52;;;;;;;;;26.00;20.00;;;;;18.82;57.54;101248.69;5016221;28;45322;-49
2023/06/07 03:46:18;;;;;;;;;27.33;19.67;;;;;18.84;57.65;101254.75;5015972;28;45684;-47
2023/06/07 03:48:43;;;;;;;;;22.67;18.67;;;;;18.70;57.69;101230.31;5015731;28;45522;-45
2023/06/07 03:51:09;;;;;;;;;28.33;22.33;;;;;18.82;57.53;101262.19;5016328;28;45407;-45
2023/06/07 03:53:35;;;;;;;;;23.00;15.00;;;;;18.79;57.44;101254.47;5016078;28;45560;-47
2023/06/07 03:56:01;;;;;;;;;17.67;16.00;;;;;18.78;57.81;101253.63;5016320;28;45339;-47
2023/06/07 03:58:26;;;;;;;;;23.67;20.00;;;;;18.75;57.41;101247.78;5015980;28;46147;-46
2023/06/07 04:00:52;;;;;;;;;27.67;22.00;;;;;18.75;57.76;101261.25;5015099;28;45370;-47
2023/06/07 04:03:24;;;;;;;;;24.00;19.00;;;;;18.72;57.72;101256.25;5016041;28;45345;-46
2023/06/07 04:05:55;;;;;;;;;29.33;20.67;;;;;18.71;57.74;101252.72;5016035;28;45632;-49
2023/06/07 04:08:21;;;;;;;;;20.33;18.00;;;;;18.66;57.91;101258.63;5015607;28;45444;-48
2023/06/07 04:10:46;;;;;;;;;23.67;17.33;;;;;18.70;57.81;101262.66;5015525;28;45291;-47
2023/06/07 04:13:12;;;;;;;;;24.33;20.00;;;;;18.69;57.89;101265.50;5017299;28;45597;-46
2023/06/07 04:15:37;;;;;;;;;26.67;24.00;;;;;18.68;57.98;101272.75;5019374;28;45427;-46
2023/06/07 04:18:03;;;;;;;;;32.00;23.33;;;;;18.67;57.91;101270.25;5018741;28;47083;-45
2023/06/07 04:20:28;;;;;;;;;21.33;18.00;;;;;18.58;58.08;101257.88;5018981;28;45381;-46
2023/06/07 04:22:53;;;;;;;;;29.00;23.33;;;;;18.63;58.08;101266.28;5019157;28;45377;-48
2023/06/07 04:25:31;;;;;;;;;24.67;18.00;;;;;18.63;57.83;101272.50;5019338;28;45512;-45
2023/06/07 04:27:59;;;;;;;;;26.33;24.00;;;;;18.59;57.88;101262.28;5018980;28;46357;-46
2023/06/07 04:30:25;;;;;;;;;29.33;25.00;;;;;18.61;58.09;101276.38;5018540;28;45269;-44
2023/06/07 04:32:52;;;;;;;;;22.33;16.33;;;;;18.50;58.17;101255.28;5018904;28;45438;-45
2023/06/07 04:35:19;;;;;;;;;29.33;21.67;;;;;18.53;58.31;101269.22;5001168;28;45485;-50
2023/06/07 04:37:45;;;;;;;;;24.33;17.00;;;;;18.57;58.21;101280.47;5018968;28;45379;-49
2023/06/07 04:40:13;;;;;;;;;28.33;20.00;;;;;18.47;58.38;101264.59;5018914;28;45409;-48
2023/06/07 04:42:40;;;;;;;;;32.67;21.00;;;;;18.53;58.24;101271.09;5019009;28;45355;-46
2023/06/07 04:45:06;;;;;;;;;24.00;20.33;;;;;18.56;58.26;101282.34;5018971;28;45502;-48
2023/06/07 04:47:32;;;;;;;;;27.67;22.00;;;;;18.51;58.21;101267.75;5018259;28;46303;-47
2023/06/07 04:49:59;;;;;;;;;28.67;23.67;;;;;18.54;58.19;101292.47;5018859;28;45327;-49
2023/06/07 04:52:25;;;;;;;;;27.67;23.67;;;;;18.55;58.18;101288.75;5018771;28;45326;-48
2023/06/07 04:54:51;;;;;;;;;31.00;23.33;;;;;18.57;58.38;101293.94;5018930;28;45299;-46
2023/06/07 04:57:18;;;;;;;;;24.67;20.67;;;;;18.56;58.28;101293.13;5018385;28;46119;-46
2023/06/07 04:59:44;;;;;;;;;27.33;22.00;;;;;18.56;58.16;101292.28;5018453;28;45158;-46
2023/06/07 05:02:10;;;;;;;;;25.33;18.00;;;;;18.42;58.20;101269.72;5018884;28;45426;-46
2023/06/07 05:04:35;;;;;;;;;23.33;21.33;;;;;18.55;58.36;101288.75;5018924;28;46044;-49
2023/06/07 05:07:02;;;;;;;;;27.33;22.00;;;;;18.55;58.30;101288.75;5018356;28;46145;-49
2023/06/07 05:09:28;;;;;;;;;29.00;22.00;;;;;18.58;58.25;101295.59;5000551;28;45453;-48
2023/06/07 05:11:53;;;;;;;;;34.00;25.00;;;;;18.56;58.02;101293.13;5018464;28;45932;-49
2023/06/07 05:14:18;;;;;;;;;31.33;25.00;;;;;18.58;58.16;101291.09;5018868;28;45403;-46
2023/06/07 05:16:44;;;;;;;;;26.33;22.33;;;;;18.57;58.17;101291.25;5018213;28;46258;-49
2023/06/07 05:19:13;;;;;;;;;26.33;22.33;;;;;18.61;57.90;101287.16;5018481;28;45371;-45
2023/06/07 05:21:38;;;;;;;;;25.00;20.67;;;;;18.61;58.19;101288.00;5018343;28;45390;-50
2023/06/07 05:24:04;;;;;;;;;33.00;24.00;;;;;18.63;58.14;101290.53;5017687;28;45407;-47
2023/06/07 05:26:29;;;;;;;;;30.00;25.00;;;;;18.61;58.10;101293.38;5018018;28;45250;-46
2023/06/07 05:28:56;;;;;;;;;28.33;24.67;;;;;18.44;58.05;101265.78;5017891;28;45268;-48
2023/06/07 05:31:22;;;;;;;;;28.00;22.33;;;;;18.60;58.28;101288.19;5018052;28;45409;-47
2023/06/07 05:33:48;;;;;;;;;33.67;23.67;;;;;18.60;58.43;101289.03;5018182;28;45390;-45
2023/06/07 05:36:13;;;;;;;;;31.67;21.67;;;;;18.59;58.19;101279.28;5017972;28;45963;-46
2023/06/07 05:38:39;;;;;;;;;30.33;25.33;;;;;18.61;58.26;101282.59;5018234;28;45433;-48
2023/06/07 05:41:04;;;;;;;;;29.67;24.67;;;;;18.66;58.06;101284.75;5018079;28;45348;-47
2023/06/07 05:43:29;;;;;;;;;25.33;18.67;;;;;18.70;58.13;101281.50;5018044;28;45380;-47
2023/06/07 05:45:55;;;;;;;;;29.00;23.67;;;;;18.75;58.13;101288.19;5018028;28;46165;-47
2023/06/07 05:48:20;;;;;;;;;39.00;25.67;;;;;18.78;58.02;101282.44;5017702;28;45389;-45
2023/06/07 05:50:46;;;;;;;;;28.67;26.33;;;;;18.80;57.99;101275.03;5017935;28;45353;-50
2023/06/07 05:53:11;;;;;;;;;36.00;29.00;;;;;18.82;57.92;101283.75;5018179;28;45303;-48
2023/06/07 05:55:37;;;;;;;;;30.67;25.67;;;;;18.84;57.78;101279.84;5017706;28;46232;-46
2023/06/07 05:58:05;;;;;;;;;27.67;22.67;;;;;18.87;57.88;101274.06;5017932;28;45417;-47
2023/06/07 06:00:31;;;;;;;;;25.33;25.33;;;;;18.88;57.69;101278.44;5017802;28;45386;-46
2023/06/07 06:02:57;;;;;;;;;33.00;23.33;;;;;18.94;57.70;101284.94;5017607;28;45528;-47
2023/06/07 06:05:27;;;;;;;;;33.00;26.00;;;;;19.00;57.67;101281.47;5017363;28;46324;-48
2023/06/07 06:07:53;;;;;;;;;24.00;23.00;;;;;19.06;57.61;101291.53;5017282;28;45327;-50
2023/06/07 06:10:19;;;;;;;;;34.33;28.33;;;;;19.15;57.60;101287.69;5017595;28;45357;-46
2023/06/07 06:12:44;;;;;;;;;32.67;25.33;;;;;19.25;57.15;101287.38;5017711;28;45171;-48
2023/06/07 06:15:10;;;;;;;;;36.00;24.33;;;;;19.35;57.15;101296.00;5017499;28;46062;-45
2023/06/07 06:17:35;;;;;;;;;28.00;23.67;;;;;19.44;56.82;101292.16;5017155;28;45203;-46
2023/06/07 06:20:00;;;;;;;;;33.33;27.33;;;;;19.56;56.76;101294.34;4999506;28;45752;-50
2023/06/07 06:22:26;;;;;;;;;36.00;27.33;;;;;19.66;56.69;101293.03;5017635;28;45212;-49
2023/06/07 06:24:51;;;;;;;;;25.33;24.00;;;;;19.76;56.17;101291.84;5016598;28;46260;-48
2023/06/07 06:27:19;;;;;;;;;27.67;27.00;;;;;19.85;55.77;101294.25;5017234;28;45414;-48
2023/06/07 06:29:44;;;;;;;;;32.67;28.67;;;;;19.99;55.90;101299.75;5017143;28;45429;-47
2023/06/07 06:32:10;;;;;;;;;34.00;24.00;;;;;20.15;55.58;101303.00;5017525;28;45483;-49
2023/06/07 06:34:35;;;;;;;;;30.00;24.67;;;;;20.33;55.05;101305.22;5016946;28;45579;-48
2023/06/07 06:37:00;;;;;;;;;33.00;26.00;;;;;20.47;54.78;101299.91;5016961;28;45456;-49
2023/06/07 06:39:26;;;;;;;;;30.33;24.00;;;;;20.81;54.16;101301.78;5017129;28;45378;-47
2023/06/07 06:41:51;;;;;;;;;37.00;29.00;;;;;20.79;53.83;101295.75;4999661;28;45466;-47
2023/06/07 06:44:17;;;;;;;;;37.00;28.33;;;;;20.70;53.72;101291.56;5016905;28;45346;-46
2023/06/07 06:46:42;;;;;;;;;31.00;25.33;;;;;20.60;54.04;101294.59;5016997;28;45395;-48
2023/06/07 06:49:08;;;;;;;;;34.67;25.00;;;;;20.54;54.45;101296.25;5007726;28;45341;-51
2023/06/07 06:51:33;;;;;;;;;37.00;25.67;;;;;20.58;54.12;101300.22;5021620;28;45421;-45
2023/06/07 06:53:59;;;;;;;;;28.00;22.33;;;;;20.59;54.42;101306.44;5012549;28;45476;-52
2023/06/07 06:56:25;;;;;;;;;32.00;26.33;;;;;20.59;54.13;101306.44;5016090;28;45408;-46
2023/06/07 06:58:51;;;;;;;;;27.00;23.67;;;;;20.54;53.89;101298.94;5016383;28;45338;-49
2023/06/07 07:01:16;;;;;;;;;33.67;26.00;;;;;20.56;54.46;101298.72;5016559;28;45314;-46
2023/06/07 07:03:42;;;;;;;;;25.67;21.00;;;;;20.55;54.13;101294.38;5015882;28;46098;-41
2023/06/07 07:06:08;;;;;;;;;29.67;26.00;;;;;20.47;54.22;101284.50;4998792;28;45367;-49
2023/06/07 07:08:35;;;;;;;;;29.33;24.67;;;;;20.57;54.23;101305.81;5015795;28;45372;-44
2023/06/07 07:11:00;;;;;;;;;25.67;21.00;;;;;20.51;53.98;101299.34;5016546;28;45409;-51
2023/06/07 07:13:26;;;;;;;;;27.33;23.67;;;;;20.58;53.86;101302.09;5015908;28;46348;-45
2023/06/07 07:15:51;;;;;;;;;25.00;22.00;;;;;20.58;53.79;101305.63;5018546;28;45360;-49
2023/06/07 07:18:17;;;;;;;;;28.00;25.00;;;;;20.60;53.83;101302.72;5016258;28;45881;-41
2023/06/07 07:20:42;;;;;;;;;27.67;22.67;;;;;20.62;54.16;101295.25;5016466;28;45419;-44
2023/06/07 07:23:07;;;;;;;;;23.33;17.00;;;;;20.65;53.77;101308.38;5016174;28;46187;-51
2023/06/07 07:25:33;;;;;;;;;23.67;21.67;;;;;20.67;53.99;101307.13;5015864;28;45304;-50
2023/06/07 07:27:58;;;;;;;;;27.00;23.67;;;;;20.72;53.46;101309.22;5014989;28;45852;-49
2023/06/07 07:30:23;;;;;;;;;31.33;24.00;;;;;20.76;53.88;101306.97;5016074;28;45405;-48
2023/06/07 07:32:49;;;;;;;;;29.33;22.33;;;;;20.76;53.50;101293.44;5015338;28;45877;-53
2023/06/07 07:35:14;;;;;;;;;30.00;21.67;;;;;20.90;53.38;101306.00;5015877;28;45375;-53
2023/06/07 07:37:40;;;;;;;;;29.67;25.00;;;;;20.96;53.57;101298.94;5015840;28;45492;-51
2023/06/07 07:40:08;;;;;;;;;24.33;20.67;;;;;21.11;53.22;101319.41;5016154;28;45323;-42
2023/06/07 07:42:34;;;;;;;;;26.67;25.67;;;;;21.23;52.81;101311.53;5015868;28;45997;-43
2023/06/07 07:44:59;;;;;;;;;28.33;24.33;;;;;21.38;52.54;101314.13;5015523;28;45338;-48
2023/06/07 07:47:25;;;;;;;;;30.67;23.67;;;;;21.57;52.00;101305.19;5015323;28;45227;-47
2023/06/07 07:49:51;;;;;;;;;31.33;24.00;;;;;21.89;51.37;101294.63;5015582;28;45655;-43
2023/06/07 07:52:17;;;;;;;;;24.67;21.67;;;;;22.30;50.44;101301.72;5015580;28;46233;-43
2023/06/07 07:54:43;;;;;;;;;21.00;18.67;;;;;22.62;50.32;101299.97;5015506;28;45598;-47
2023/06/07 07:57:09;;;;;;;;;28.00;23.67;;;;;23.66;48.58;101293.50;5015639;28;45425;-48
2023/06/07 07:59:34;;;;;;;;;27.00;23.00;;;;;24.58;46.99;101285.59;5015260;28;46024;-44
2023/06/07 08:01:59;;;;;;;;;21.50;21.50;;;;;26.37;43.30;101281.06;5015585;28;46154;-49
2023/06/07 08:04:25;;;;;;;;;26.25;22.00;;;;;26.76;42.36;101275.97;5015191;28;45357;-51
2023/06/07 08:06:50;;;;;;;;;27.00;23.75;;;;;26.64;41.31;101263.41;5015472;28;45381;-42
2023/06/07 08:09:16;;;;;;;;;18.50;18.25;;;;;27.00;40.99;101279.41;5015488;28;45356;-44
2023/06/07 08:11:41;;;;;;;;;18.75;15.75;;;;;27.91;39.88;101274.00;5015109;28;46043;-42
2023/06/07 08:14:06;;;;;;;;;21.75;21.75;;;;;28.26;38.81;101281.09;5015266;28;45321;-43
2023/06/07 08:16:32;;;;;;;;;23.25;20.50;;;;;29.00;37.10;101273.38;5015070;28;45648;-42
2023/06/07 08:18:58;;;;;;;;;20.00;18.00;;;;;29.47;36.60;101282.91;5015397;28;45446;-43
2023/06/07 08:21:24;;;;;;;;;19.25;18.25;;;;;28.98;36.79;101261.00;5014829;28;46042;-44
2023/06/07 08:23:52;;;;;;;;;20.20;16.20;;;;;29.06;36.59;101283.28;5014945;28;45359;-42
2023/06/07 08:26:18;;;;;;;;;18.00;15.40;;;;;29.30;36.06;101277.53;5015406;28;45412;-41
2023/06/07 08:28:43;;;;;;;;;15.50;14.25;;;;;30.04;35.44;101276.78;5027135;28;45414;-42
2023/06/07 08:31:10;;;;;;;;;22.25;19.25;;;;;31.10;33.55;101280.38;5035085;28;45832;-44
2023/06/07 08:33:36;;;;;;;;;20.00;17.00;;;;;31.35;33.58;101282.38;5034498;28;45478;-48
2023/06/07 08:36:01;;;;;;;;;20.60;18.60;;;;;31.75;32.69;101276.09;5035315;28;45521;-48
2023/06/07 08:38:26;;;;;;;;;18.50;16.25;;;;;31.57;31.69;101285.72;5021334;28;45467;-42
2023/06/07 08:40:54;;;;;;;;;18.25;16.50;;;;;32.68;30.66;101277.59;5014829;28;45335;-43
2023/06/07 08:43:20;;;;;;;;;21.60;16.00;;;;;33.60;30.55;101279.88;5014977;28;45349;-48
2023/06/07 08:45:45;;;;;;;;;17.00;15.25;;;;;34.31;29.23;101287.50;5014829;28;45692;-50
2023/06/07 08:48:12;;;;;;;;;22.00;17.00;;;;;34.88;28.39;101277.41;5015298;28;45370;-51
2023/06/07 08:50:38;;;;;;;;;18.20;17.00;;;;;35.31;27.23;101277.38;5014671;28;45426;-48
2023/06/07 08:53:12;;;;;;;;;18.20;17.00;;;;;35.57;27.04;101279.78;5014818;28;45323;-51
2023/06/07 08:55:38;;;;;;;;;20.80;19.40;;;;;35.89;26.67;101287.25;5014547;28;45331;-49
2023/06/07 08:58:06;;;;;;;;;21.80;17.20;;;;;36.22;26.32;101269.50;5014382;28;45319;-51
2023/06/07 09:00:32;;;;;;;;;21.00;18.40;;;;;36.61;25.77;101270.13;5015307;28;46379;-50
2023/06/07 09:02:57;;;;;;;;;16.00;14.50;;;;;36.87;24.73;101267.63;5027869;28;45634;-52
2023/06/07 09:05:22;;;;;;;;;18.00;15.50;;;;;36.87;25.23;101256.53;5034463;28;45417;-52
2023/06/07 09:07:49;;;;;;;;;19.25;17.50;;;;;37.19;24.85;101266.66;5034503;28;45510;-52
2023/06/07 09:10:17;;;;;;;;;17.60;15.00;;;;;37.39;24.91;101262.56;5034567;28;46205;-50
2023/06/07 09:12:46;;;;;;;;;19.80;18.60;;;;;37.51;24.67;101260.06;5034485;28;45615;-51
2023/06/07 09:15:21;;;;;;;;;15.40;15.40;;;;;37.72;24.38;101257.59;5034932;28;45443;-42
2023/06/07 09:17:51;;;;;;;;;15.00;14.20;;;;;37.89;24.58;101263.28;5034577;28;45396;-47
2023/06/07 09:20:21;;;;;;;;;17.00;13.00;;;;;38.01;24.43;101271.00;5033578;28;46165;-41
2023/06/07 09:23:17;;;;;;;;;17.60;16.20;;;;;37.95;24.38;101263.94;5034376;28;45309;-42
2023/06/07 09:25:45;;;;;;;;;18.20;17.20;;;;;37.92;23.73;101261.78;4991779;28;45640;-42
2023/06/07 09:28:15;;;;;;;;;18.40;15.80;;;;;37.88;24.39;101267.19;4992892;28;45466;-49
2023/06/07 09:30:54;;;;;;;;;15.20;15.20;;;;;37.80;24.43;101272.63;4991900;28;46127;-42
2023/06/07 09:33:33;;;;;;;;;19.80;17.60;;;;;37.70;24.53;101266.22;4992157;28;45499;-41
2023/06/07 09:36:05;;;;;;;;;14.40;14.40;;;;;37.59;24.40;101264.03;4992147;28;45513;-45
2023/06/07 09:38:31;;;;;;;;;16.20;16.20;;;;;37.59;24.38;101264.88;4993048;28;45477;-47
2023/06/07 09:40:58;;;;;;;;;16.75;13.25;;;;;37.47;24.74;101263.81;4995463;28;46982;-43
2023/06/07 09:43:25;;;;;;;;;18.00;17.00;;;;;37.25;24.99;101265.38;4995324;28;45478;-41
2023/06/07 09:45:54;;;;;;;;;19.00;18.00;;;;;37.19;25.52;101255.53;4995626;28;45499;-46
2023/06/07 09:48:20;;;;;;;;;22.40;18.00;;;;;37.31;25.62;101257.78;4995741;28;45362;-47
2023/06/07 09:50:58;;;;;;;;;16.25;15.75;;;;;37.25;25.27;101243.19;4995283;28;46248;-45
2023/06/07 09:53:24;;;;;;;;;18.20;15.20;;;;;37.20;24.61;101244.13;4995593;28;45439;-44
2023/06/07 09:55:50;;;;;;;;;14.25;13.50;;;;;37.17;24.72;101243.97;4995468;28;45841;-44
2023/06/07 09:58:19;;;;;;;;;17.40;15.00;;;;;37.17;25.46;101239.22;4995780;28;45524;-48
2023/06/07 10:00:45;;;;;;;;;14.20;12.40;;;;;37.11;24.77;101245.19;4995266;28;46342;-50
2023/06/07 10:03:12;;;;;;;;;18.50;16.75;;;;;37.01;25.14;101231.59;5031086;28;45434;-47
2023/06/07 10:05:38;;;;;;;;;16.60;15.80;;;;;36.89;25.12;101232.91;5016387;28;45578;-46
2023/06/07 10:08:05;;;;;;;;;14.40;14.40;;;;;36.73;24.76;101235.19;5017578;28;45358;-50
2023/06/07 10:10:32;;;;;;;;;16.80;14.40;;;;;36.54;25.17;101226.22;5016689;28;47776;-46
2023/06/07 10:13:02;;;;;;;;;16.60;14.80;;;;;36.36;25.77;101229.88;5017236;28;45439;-45
2023/06/07 10:15:29;;;;;;;;;16.20;14.60;;;;;36.12;25.82;101236.47;5017383;28;45448;-52
2023/06/07 10:18:00;;;;;;;;;19.20;18.20;;;;;35.95;26.19;101230.69;5017537;28;45358;-47
2023/06/07 10:20:30;;;;;;;;;17.80;16.40;;;;;35.76;26.45;101230.72;5017333;28;45351;-50
2023/06/07 10:23:02;;;;;;;;;21.20;17.20;;;;;35.58;26.54;101226.09;5016376;28;45255;-48
2023/06/07 10:25:31;;;;;;;;;17.00;14.00;;;;;35.49;26.85;101217.66;5017200;28;45406;-49
2023/06/07 10:28:15;;;;;;;;;14.40;13.80;;;;;35.40;26.88;101220.28;5017249;28;45359;-45
2023/06/07 10:30:47;;;;;;;;;17.40;14.80;;;;;35.21;26.88;101219.47;5016960;28;47527;-46
2023/06/07 10:33:13;;;;;;;;;19.60;16.20;;;;;35.00;26.76;101218.97;5017068;28;45645;-48
2023/06/07 10:35:39;;;;;;;;;17.80;17.80;;;;;34.69;26.57;101202.78;5016754;28;45486;-50
2023/06/07 10:38:04;;;;;;;;;18.50;16.00;;;;;34.72;26.92;101216.03;5017895;28;45976;-47
2023/06/07 10:40:31;;;;;;;;;15.75;15.25;;;;;34.69;26.59;101213.03;5017101;28;45992;-49
2023/06/07 10:42:57;;;;;;;;;15.80;15.20;;;;;34.61;26.98;101205.41;5017381;28;45358;-48
2023/06/07 10:45:23;;;;;;;;;17.80;17.80;;;;;34.58;26.74;101208.75;5016928;28;45399;-45
2023/06/07 10:47:48;;;;;;;;;18.00;17.00;;;;;34.59;26.78;101210.38;5016801;28;45310;-48
2023/06/07 10:50:26;;;;;;;;;15.75;15.50;;;;;34.40;26.65;101208.41;5016946;28;45464;-46
2023/06/07 10:52:59;;;;;;;;;14.20;12.80;;;;;34.17;27.07;101199.00;5016658;28;45367;-49
2023/06/07 10:55:26;;;;;;;;;18.00;15.40;;;;;33.69;27.63;101189.84;5016589;28;45449;-43
2023/06/07 10:57:52;;;;;;;;;17.60;15.60;;;;;33.45;27.40;101206.34;5016624;28;46050;-45
2023/06/07 11:00:29;;;;;;;;;17.75;16.25;;;;;33.09;28.38;101194.75;5016667;28;45550;-48
2023/06/07 11:03:09;;;;;;;;;16.40;15.00;;;;;32.61;28.58;101197.19;5016414;28;45342;-49
2023/06/07 11:06:01;;;;;;;;;17.80;14.80;;;;;32.25;29.11;101198.16;5016267;28;45314;-42
2023/06/07 11:08:28;;;;;;;;;16.40;16.00;;;;;31.97;29.07;101194.09;5016761;28;45421;-46